sensor_id;sensor_type;location;lat;lon;timestamp;pressure;altitude;pressure_sealevel;temperature;humidity
84169;BME280;74295;50.146;8.794;2024-03-08T00:08:23;100903.31;;;4.03;67.25
84169;BME280;74295;50.146;8.794;2024-03-08T00:18:27;100901.94;;;3.92;67.57
84169;BME280;74295;50.146;8.794;2024-03-08T00:28:31;100897.31;;;3.51;69.59
84169;BME280;74295;50.146;8.794;2024-03-08T00:38:37;100906.22;;;3.08;72.33
84169;BME280;74295;50.146;8.794;2024-03-08T00:48:39;100894.44;;;2.80;74.09
84169;BME280;74295;50.146;8.794;2024-03-08T00:58:46;100882.84;;;2.50;74.78
84169;BME280;74295;50.146;8.794;2024-03-08T01:08:48;100874.69;;;2.29;74.98
84169;BME280;74295;50.146;8.794;2024-03-08T01:18:54;100858.47;;;2.08;75.52
84169;BME280;74295;50.146;8.794;2024-03-08T01:28:57;100856.25;;;1.89;76.79
84169;BME280;74295;50.146;8.794;2024-03-08T01:39:02;100833.06;;;1.89;77.28
84169;BME280;74295;50.146;8.794;2024-03-08T01:49:09;100813.09;;;1.77;76.85
84169;BME280;74295;50.146;8.794;2024-03-08T01:59:13;100810.06;;;1.80;77.23
84169;BME280;74295;50.146;8.794;2024-03-08T02:09:16;100795.03;;;2.02;75.52
84169;BME280;74295;50.146;8.794;2024-03-08T02:19:21;100787.13;;;2.23;74.62
84169;BME280;74295;50.146;8.794;2024-03-08T02:29:25;100781.03;;;2.14;75.18
84169;BME280;74295;50.146;8.794;2024-03-08T02:39:28;100777.91;;;2.25;74.72
84169;BME280;74295;50.146;8.794;2024-03-08T02:49:32;100776.53;;;2.15;75.23
84169;BME280;74295;50.146;8.794;2024-03-08T02:59:35;100776.75;;;1.91;76.52
84169;BME280;74295;50.146;8.794;2024-03-08T03:09:42;100775.75;;;1.69;76.98
84169;BME280;74295;50.146;8.794;2024-03-08T03:19:45;100769.72;;;1.45;78.63
84169;BME280;74295;50.146;8.794;2024-03-08T03:29:49;100756.22;;;1.38;78.77
84169;BME280;74295;50.146;8.794;2024-03-08T03:39:53;100752.66;;;1.54;77.40
84169;BME280;74295;50.146;8.794;2024-03-08T03:49:58;100747.16;;;1.70;76.75
84169;BME280;74295;50.146;8.794;2024-03-08T04:00:04;100736.66;;;1.91;76.23
84169;BME280;74295;50.146;8.794;2024-03-08T04:10:10;100735.81;;;1.90;76.63
84169;BME280;74295;50.146;8.794;2024-03-08T04:20:13;100732.66;;;1.87;76.36
84169;BME280;74295;50.146;8.794;2024-03-08T04:30:18;100727.22;;;1.80;77.12
84169;BME280;74295;50.146;8.794;2024-03-08T04:40:22;100723.59;;;1.73;76.99
84169;BME280;74295;50.146;8.794;2024-03-08T04:50:32;100719.44;;;1.71;76.72
84169;BME280;74295;50.146;8.794;2024-03-08T05:00:44;100725.94;;;1.54;77.52
84169;BME280;74295;50.146;8.794;2024-03-08T05:10:48;100719.63;;;1.47;77.50
84169;BME280;74295;50.146;8.794;2024-03-08T05:20:51;100701.22;;;1.52;78.01
84169;BME280;74295;50.146;8.794;2024-03-08T05:30:55;100703.38;;;1.56;78.03
84169;BME280;74295;50.146;8.794;2024-03-08T05:40:58;100703.00;;;1.59;77.54
84169;BME280;74295;50.146;8.794;2024-03-08T05:51:02;100690.94;;;1.63;77.58
84169;BME280;74295;50.146;8.794;2024-03-08T06:01:05;100687.44;;;1.63;77.09
84169;BME280;74295;50.146;8.794;2024-03-08T06:11:10;100688.00;;;1.73;77.70
84169;BME280;74295;50.146;8.794;2024-03-08T06:21:13;100691.44;;;1.81;76.88
84169;BME280;74295;50.146;8.794;2024-03-08T06:31:19;100689.53;;;1.90;77.27
84169;BME280;74295;50.146;8.794;2024-03-08T06:41:22;100693.50;;;2.08;76.50
84169;BME280;74295;50.146;8.794;2024-03-08T06:51:26;100694.19;;;2.25;76.35
84169;BME280;74295;50.146;8.794;2024-03-08T07:01:28;100667.59;;;2.52;75.14
84169;BME280;74295;50.146;8.794;2024-03-08T07:11:34;100676.44;;;2.67;75.07
84169;BME280;74295;50.146;8.794;2024-03-08T07:21:38;100665.41;;;2.92;73.80
84169;BME280;74295;50.146;8.794;2024-03-08T07:31:42;100643.69;;;3.22;72.70
84169;BME280;74295;50.146;8.794;2024-03-08T07:41:52;100639.44;;;3.55;71.50
84169;BME280;74295;50.146;8.794;2024-03-08T07:51:56;100631.63;;;3.81;71.24
84169;BME280;74295;50.146;8.794;2024-03-08T08:01:59;100612.00;;;4.08;70.06
84169;BME280;74295;50.146;8.794;2024-03-08T08:12:04;100608.91;;;4.52;68.76
84169;BME280;74295;50.146;8.794;2024-03-08T08:22:07;100592.28;;;4.76;68.37
84169;BME280;74295;50.146;8.794;2024-03-08T08:32:11;100599.13;;;5.04;66.81
84169;BME280;74295;50.146;8.794;2024-03-08T08:42:14;100574.97;;;5.17;66.96
84169;BME280;74295;50.146;8.794;2024-03-08T08:52:18;100565.06;;;5.51;66.25
84169;BME280;74295;50.146;8.794;2024-03-08T09:02:21;100540.84;;;5.90;64.69
84169;BME280;74295;50.146;8.794;2024-03-08T09:12:25;100537.47;;;6.07;63.50
84169;BME280;74295;50.146;8.794;2024-03-08T09:22:28;100512.97;;;6.28;62.83
84169;BME280;74295;50.146;8.794;2024-03-08T09:32:32;100505.06;;;6.71;60.68
84169;BME280;74295;50.146;8.794;2024-03-08T09:42:35;100479.16;;;7.01;59.36
84169;BME280;74295;50.146;8.794;2024-03-08T09:52:41;100455.56;;;7.21;58.59
84169;BME280;74295;50.146;8.794;2024-03-08T10:02:45;100431.09;;;7.40;57.77
84169;BME280;74295;50.146;8.794;2024-03-08T10:12:49;100429.91;;;7.54;56.53
84169;BME280;74295;50.146;8.794;2024-03-08T10:22:52;100420.59;;;7.68;56.51
84169;BME280;74295;50.146;8.794;2024-03-08T10:33:11;100395.25;;;7.88;56.02
84169;BME280;74295;50.146;8.794;2024-03-08T10:43:21;100400.38;;;8.07;55.16
84169;BME280;74295;50.146;8.794;2024-03-08T10:53:30;100396.06;;;8.06;54.54
84169;BME280;74295;50.146;8.794;2024-03-08T11:03:46;100368.50;;;8.45;53.76
84169;BME280;74295;50.146;8.794;2024-03-08T11:13:54;100355.25;;;8.67;53.75
84169;BME280;74295;50.146;8.794;2024-03-08T11:23:59;100346.59;;;8.76;51.94
84169;BME280;74295;50.146;8.794;2024-03-08T11:34:15;100323.75;;;9.30;56.61
84169;BME280;74295;50.146;8.794;2024-03-08T11:44:18;100311.75;;;9.26;51.33
84169;BME280;74295;50.146;8.794;2024-03-08T11:54:23;100294.00;;;9.30;51.50
84169;BME280;74295;50.146;8.794;2024-03-08T12:04:27;100275.72;;;9.48;51.83
84169;BME280;74295;50.146;8.794;2024-03-08T12:14:31;100267.94;;;9.52;51.40
84169;BME280;74295;50.146;8.794;2024-03-08T12:24:37;100258.06;;;9.74;51.55
84169;BME280;74295;50.146;8.794;2024-03-08T12:34:42;100236.75;;;9.77;51.47
84169;BME280;74295;50.146;8.794;2024-03-08T12:44:47;100226.03;;;9.99;51.41
84169;BME280;74295;50.146;8.794;2024-03-08T12:54:51;100209.66;;;10.22;50.31
84169;BME280;74295;50.146;8.794;2024-03-08T13:04:54;100201.78;;;10.37;49.99
84169;BME280;74295;50.146;8.794;2024-03-08T13:15:00;100172.44;;;10.51;49.99
84169;BME280;74295;50.146;8.794;2024-03-08T13:25:03;100184.50;;;10.60;49.70
84169;BME280;74295;50.146;8.794;2024-03-08T13:35:08;100171.38;;;10.52;50.19
84169;BME280;74295;50.146;8.794;2024-03-08T13:45:14;100151.75;;;10.66;49.47
84169;BME280;74295;50.146;8.794;2024-03-08T13:55:21;100119.38;;;10.76;49.55
84169;BME280;74295;50.146;8.794;2024-03-08T14:05:24;100106.69;;;10.82;49.32
84169;BME280;74295;50.146;8.794;2024-03-08T14:15:29;100094.78;;;10.83;48.39
84169;BME280;74295;50.146;8.794;2024-03-08T14:25:32;100071.91;;;11.00;48.62
84169;BME280;74295;50.146;8.794;2024-03-08T14:35:36;100050.28;;;11.05;48.43
84169;BME280;74295;50.146;8.794;2024-03-08T14:45:39;100032.25;;;11.21;47.80
84169;BME280;74295;50.146;8.794;2024-03-08T14:55:46;100014.44;;;11.30;47.38
84169;BME280;74295;50.146;8.794;2024-03-08T15:05:49;100000.31;;;11.28;48.22
84169;BME280;74295;50.146;8.794;2024-03-08T15:15:53;99993.78;;;11.29;46.87
84169;BME280;74295;50.146;8.794;2024-03-08T15:25:57;99975.06;;;11.27;46.48
84169;BME280;74295;50.146;8.794;2024-03-08T15:36:02;99965.34;;;11.31;46.15
84169;BME280;74295;50.146;8.794;2024-03-08T15:46:10;99947.38;;;11.25;45.72
84169;BME280;74295;50.146;8.794;2024-03-08T15:56:14;99944.59;;;11.15;45.49
84169;BME280;74295;50.146;8.794;2024-03-08T16:06:17;99938.25;;;11.05;45.91
84169;BME280;74295;50.146;8.794;2024-03-08T16:16:24;99931.69;;;11.69;44.77
84169;BME280;74295;50.146;8.794;2024-03-08T16:26:27;99933.50;;;12.05;44.65
84169;BME280;74295;50.146;8.794;2024-03-08T16:36:33;99916.72;;;11.61;45.20
84169;BME280;74295;50.146;8.794;2024-03-08T16:46:36;99907.63;;;10.78;45.86
84169;BME280;74295;50.146;8.794;2024-03-08T16:56:43;99914.84;;;10.14;47.75
84169;BME280;74295;50.146;8.794;2024-03-08T17:06:48;99910.72;;;9.68;49.56
84169;BME280;74295;50.146;8.794;2024-03-08T17:16:52;99911.81;;;9.51;50.11
84169;BME280;74295;50.146;8.794;2024-03-08T17:26:56;99905.22;;;9.42;50.87
84169;BME280;74295;50.146;8.794;2024-03-08T17:37:01;99913.88;;;9.06;52.87
84169;BME280;74295;50.146;8.794;2024-03-08T17:47:04;99910.03;;;9.02;52.02
84169;BME280;74295;50.146;8.794;2024-03-08T17:57:08;99904.69;;;8.90;52.44
84169;BME280;74295;50.146;8.794;2024-03-08T18:07:10;99896.19;;;8.82;52.93
84169;BME280;74295;50.146;8.794;2024-03-08T18:17:16;99887.66;;;8.73;53.69
84169;BME280;74295;50.146;8.794;2024-03-08T18:27:18;99888.03;;;8.65;53.36
84169;BME280;74295;50.146;8.794;2024-03-08T18:37:22;99887.13;;;8.43;54.16
84169;BME280;74295;50.146;8.794;2024-03-08T18:47:25;99899.91;;;7.68;58.13
84169;BME280;74295;50.146;8.794;2024-03-08T18:57:29;99879.13;;;7.41;59.65
84169;BME280;74295;50.146;8.794;2024-03-08T19:07:32;99867.59;;;7.45;59.51
84169;BME280;74295;50.146;8.794;2024-03-08T19:17:38;99850.44;;;7.63;59.01
84169;BME280;74295;50.146;8.794;2024-03-08T19:27:40;99838.16;;;7.55;59.32
84169;BME280;74295;50.146;8.794;2024-03-08T19:37:45;99830.66;;;7.57;59.75
84169;BME280;74295;50.146;8.794;2024-03-08T19:47:48;99831.25;;;7.48;60.06
84169;BME280;74295;50.146;8.794;2024-03-08T19:57:52;99836.34;;;7.21;61.09
84169;BME280;74295;50.146;8.794;2024-03-08T20:07:59;99841.41;;;7.06;61.10
84169;BME280;74295;50.146;8.794;2024-03-08T20:18:07;99838.56;;;6.90;61.86
84169;BME280;74295;50.146;8.794;2024-03-08T20:28:11;99848.75;;;6.53;62.84
84169;BME280;74295;50.146;8.794;2024-03-08T20:38:15;99833.00;;;6.27;64.33
84169;BME280;74295;50.146;8.794;2024-03-08T20:48:22;99832.34;;;5.73;67.02
84169;BME280;74295;50.146;8.794;2024-03-08T20:58:27;99832.28;;;5.43;68.84
84169;BME280;74295;50.146;8.794;2024-03-08T21:08:30;99831.63;;;5.11;69.94
84169;BME280;74295;50.146;8.794;2024-03-08T21:18:36;99831.19;;;4.72;71.78
84169;BME280;74295;50.146;8.794;2024-03-08T21:28:40;99823.16;;;4.47;72.82
84169;BME280;74295;50.146;8.794;2024-03-08T21:38:45;99831.00;;;4.18;75.51
84169;BME280;74295;50.146;8.794;2024-03-08T21:48:48;99828.91;;;3.95;76.34
84169;BME280;74295;50.146;8.794;2024-03-08T21:58:51;99822.63;;;4.08;73.60
84169;BME280;74295;50.146;8.794;2024-03-08T22:08:54;99808.66;;;4.30;72.75
84169;BME280;74295;50.146;8.794;2024-03-08T22:19:01;99819.03;;;4.20;72.85
84169;BME280;74295;50.146;8.794;2024-03-08T22:29:05;99819.69;;;4.16;72.88
84169;BME280;74295;50.146;8.794;2024-03-08T22:39:10;99836.63;;;3.79;75.92
84169;BME280;74295;50.146;8.794;2024-03-08T22:49:12;99838.03;;;3.44;77.48
84169;BME280;74295;50.146;8.794;2024-03-08T22:59:18;99826.75;;;3.29;77.96
84169;BME280;74295;50.146;8.794;2024-03-08T23:09:22;99854.19;;;3.24;76.42
84169;BME280;74295;50.146;8.794;2024-03-08T23:19:26;99836.84;;;3.27;76.09
84169;BME280;74295;50.146;8.794;2024-03-08T23:29:31;99832.28;;;3.34;76.00
84169;BME280;74295;50.146;8.794;2024-03-08T23:39:35;99835.97;;;3.39;75.38
84169;BME280;74295;50.146;8.794;2024-03-08T23:49:38;99825.13;;;3.21;76.10
84169;BME280;74295;50.146;8.794;2024-03-08T23:59:42;99824.72;;;3.24;75.78
